Fort Payne, Alabama
Current Conditions -  °F | °C
As of 1:55 PM on Sunday 21 Dec 2014 (Local Time) from K4A9 Reporting Station
Overcast Overcast  
Wind Chill: 50°   Ceiling: 2900
Heat Index: 50°   Visibility: 10mi
Dew Point: 37°   Wind: 6mph
Humidity: 62%   Direction: 120°ESE
Pressure: 30.09"   Gusts: NA
Location:  34.44°N, 85.71°W
Report Text: K4A9 211955Z AUTO 12005KT 10SM OVC029 10/03 A3009 RMK AO2
Loading
Personal Weather Stations






























Interactive Weather Map New forecast layout! Learn more

10-Day Weather Forecast

Advertisements
Track Severe Weather on mobile